createdAt,value
2022-09-12T00:14:14.254Z,11.32
2022-09-12T00:29:17.534Z,10.81
2022-09-12T00:44:22.569Z,11.04
2022-09-12T00:59:31.606Z,10.58
2022-09-12T01:14:33.848Z,10.73
2022-09-12T01:29:38.925Z,10.42
2022-09-12T01:44:52.041Z,10.37
2022-09-12T01:59:56.590Z,10.31
2022-09-12T02:15:02.726Z,10.15
2022-09-12T02:30:06.206Z,10.02
2022-09-12T02:45:08.793Z,10.20
2022-09-12T03:00:11.572Z,10.18
2022-09-12T03:15:37.812Z,9.84
2022-09-12T03:30:44.853Z,9.66
2022-09-12T03:45:49.882Z,9.67
2022-09-12T04:00:52.213Z,10.03
2022-09-12T04:16:01.037Z,9.45
2022-09-12T04:31:07.743Z,9.19
2022-09-12T04:46:10.839Z,9.13
2022-09-12T05:01:17.562Z,9.07
2022-09-12T05:16:20.901Z,9.67
2022-09-12T05:31:24.732Z,10.88
2022-09-12T05:46:43.464Z,13.62
2022-09-12T06:01:45.730Z,15.69
2022-09-12T06:16:48.636Z,17.05
2022-09-12T06:31:51.014Z,18.78
2022-09-12T06:46:54.185Z,18.85
2022-09-12T07:01:56.638Z,20.43
2022-09-12T07:16:58.962Z,21.41
2022-09-12T07:32:02.300Z,22.80
2022-09-12T07:47:04.799Z,23.26
2022-09-12T08:02:11.539Z,23.17
2022-09-12T08:17:17.127Z,22.66
2022-09-12T08:32:19.318Z,23.42
2022-09-12T08:47:40.416Z,23.72
2022-09-12T09:03:04.945Z,23.86
2022-09-12T09:18:28.762Z,24.13
2022-09-12T09:33:34.573Z,23.62
2022-09-12T09:48:47.434Z,23.24
2022-09-12T10:03:53.721Z,23.60
2022-09-12T10:19:00.169Z,24.66
2022-09-12T10:34:02.435Z,25.77
2022-09-12T10:49:24.822Z,25.50
2022-09-12T11:04:33.088Z,25.35
2022-09-12T11:19:38.421Z,25.47
2022-09-12T11:34:40.536Z,25.86
2022-09-12T11:49:48.593Z,25.90
2022-09-12T12:05:26.401Z,25.96
2022-09-12T12:20:28.713Z,24.54
2022-09-12T12:35:37.724Z,26.54
2022-09-12T12:50:39.921Z,26.12
2022-09-12T13:05:50.752Z,25.08
2022-09-12T13:21:31.646Z,23.29
2022-09-12T13:37:07.029Z,22.51
2022-09-12T13:52:16.759Z,22.02
2022-09-12T14:07:23.140Z,21.99
2022-09-12T14:22:26.915Z,22.00
2022-09-12T14:37:29.178Z,21.76
2022-09-12T14:52:34.959Z,21.54
2022-09-12T15:07:50.294Z,21.42
2022-09-12T15:22:52.620Z,21.28
2022-09-12T15:37:54.831Z,21.02
2022-09-12T15:52:59.451Z,20.98
2022-09-12T16:08:01.797Z,20.77
2022-09-12T16:23:03.978Z,20.39
2022-09-12T16:38:06.169Z,20.08
2022-09-12T16:53:10.552Z,19.90
2022-09-12T17:08:12.753Z,19.40
2022-09-12T17:23:14.985Z,18.92
2022-09-12T17:38:20.182Z,18.40
2022-09-12T17:53:25.557Z,18.31
2022-09-12T18:08:27.762Z,18.03
2022-09-12T18:23:30.157Z,17.94
2022-09-12T18:38:32.463Z,17.77
2022-09-12T18:53:34.985Z,17.56
2022-09-12T19:08:37.360Z,17.60
2022-09-12T19:23:39.575Z,17.39
2022-09-12T19:38:41.874Z,17.29
2022-09-12T19:53:44.708Z,17.30
2022-09-12T20:08:46.990Z,17.14
2022-09-12T20:23:49.440Z,16.97
2022-09-12T20:38:53.016Z,16.78
2022-09-12T20:53:59.691Z,16.84
2022-09-12T21:09:02.009Z,16.66
2022-09-12T21:24:04.359Z,16.59
2022-09-12T21:39:06.843Z,16.55
2022-09-12T21:54:09.084Z,16.25
2022-09-12T22:09:12.435Z,16.07
2022-09-12T22:24:29.776Z,15.93
2022-09-12T22:39:32.017Z,15.87
2022-09-12T22:54:34.263Z,15.95
2022-09-12T23:09:36.462Z,15.82
2022-09-12T23:24:38.864Z,15.89
2022-09-12T23:39:43.421Z,15.76
2022-09-12T23:54:46.542Z,15.68
